Briefing drone pour Reignier-esery

Rechercher une autre localisation

Conditions de vol :


Nous sommes le : Vendredi 03 décembre 2021
Il est 22:10 UTC (23:10 LT)

Lever de soleil : 06:33 UTC (07:33 LT)
Coucher de soleil : 16:16 UTC (17:16 LT)

Météo

L'essentiel des conditions de vol

VIGILANCE MÉTÉO FRANCE - Haute-Savoie (74)
Vigilance Jaune : Pluie-inondation / Avalanches / Neige-verglas
METAR de LFLP
LFLP 032200Z AUTO 00000KT 9999 OVC045 00/M02 Q1014

Date d'émission: 03/12/2021
Heure d'émission: 22:00 UTC
Vent: Calme
Visibilité horizontale: > 10 km
Plafond :
- Couvert à 4500ft (1372m)
Température: 0 °C
Point de rosée: -2 °C
Humidité: 86%
Pression (QNH): 1014 hPa
TAF de LFLP
AMD LFLP 032001Z 0320/0415 CNL

Conditions prévues :

Heure d'émission : Bulletin éffectué le 03 à 20:00 UTC
Prévision : Valide du 03 a 20:00 UTC au 04 a 15:00 UTC
Nuages : à 0ft (0 m)
WEBCAM POUR REIGNIER-ESERY

Réglementation

Voler en sécurité

CARTES AERONAUTIQUE 1/500.000
CARTES VAC (LFLP)
SUP AIP




Chargement des AIP...
NOTAM (REIGNIER-ESERY + Terrain à proximité / FIR )




Chargement des NOTAMS...
CONTACT PREFECTURE 74


Avertissement : Les données mises à disposition sont indicatives. Oxygène Drone ne pourra être tenu responsable de dégâts causés aux biens et aux personnes.